createdAt,value
2022-12-03T00:01:20.745Z,4.43
2022-12-03T00:03:48.759Z,4.47
2022-12-03T00:06:17.628Z,4.44
2022-12-03T00:08:45.598Z,4.45
2022-12-03T00:11:13.585Z,4.47
2022-12-03T00:13:41.517Z,4.46
2022-12-03T00:16:09.508Z,4.45
2022-12-03T00:18:38.887Z,4.47
2022-12-03T00:21:07.244Z,4.45
2022-12-03T00:23:41.548Z,4.46
2022-12-03T00:26:10.118Z,4.47
2022-12-03T00:28:38.046Z,4.46
2022-12-03T00:31:06.218Z,4.42
2022-12-03T00:33:34.230Z,4.36
2022-12-03T00:36:03.587Z,4.36
2022-12-03T00:38:31.559Z,4.41
2022-12-03T00:40:59.473Z,4.42
2022-12-03T00:43:27.420Z,4.46
2022-12-03T00:45:55.368Z,4.48
2022-12-03T00:48:23.288Z,4.44
2022-12-03T00:50:51.256Z,4.41
2022-12-03T00:53:20.591Z,4.37
2022-12-03T00:55:50.675Z,4.35
2022-12-03T00:58:18.665Z,4.30
2022-12-03T01:00:46.617Z,4.36
2022-12-03T01:03:14.538Z,4.34
2022-12-03T01:05:42.474Z,4.40
2022-12-03T01:08:10.513Z,4.42
2022-12-03T01:10:39.898Z,4.45
2022-12-03T01:13:07.882Z,4.40
2022-12-03T01:15:35.834Z,4.39
2022-12-03T01:18:03.832Z,4.40
2022-12-03T01:20:31.778Z,4.42
2022-12-03T01:22:59.754Z,4.44
2022-12-03T01:25:27.752Z,4.43
2022-12-03T01:27:57.100Z,4.44
2022-12-03T01:30:25.065Z,4.47
2022-12-03T01:32:52.004Z,4.47
2022-12-03T01:35:19.950Z,4.48
2022-12-03T01:37:47.935Z,4.44
2022-12-03T01:40:17.117Z,4.40
2022-12-03T01:42:45.091Z,4.26
2022-12-03T01:45:19.267Z,4.03
2022-12-03T01:47:47.240Z,4.18
2022-12-03T01:50:16.814Z,4.16
2022-12-03T01:52:44.772Z,4.19
2022-12-03T01:55:14.215Z,4.17
2022-12-03T01:57:43.311Z,4.12
2022-12-03T02:00:16.145Z,4.19
2022-12-03T02:02:44.076Z,4.21
2022-12-03T02:05:17.170Z,4.15
2022-12-03T02:07:45.276Z,4.13
2022-12-03T02:10:13.546Z,4.19
2022-12-03T02:12:42.683Z,4.24
2022-12-03T02:15:11.406Z,4.29
2022-12-03T02:17:40.757Z,4.34
2022-12-03T02:20:09.957Z,4.36
2022-12-03T02:22:41.708Z,4.33
2022-12-03T02:25:21.202Z,4.33
2022-12-03T02:27:49.181Z,4.15
2022-12-03T02:30:19.200Z,4.13
2022-12-03T02:32:47.245Z,4.25
2022-12-03T02:35:16.019Z,4.29
2022-12-03T02:37:44.002Z,4.32
2022-12-03T02:40:13.606Z,4.34
2022-12-03T02:42:41.933Z,4.37
2022-12-03T02:45:11.704Z,4.39
2022-12-03T02:47:41.669Z,4.38
2022-12-03T02:50:10.151Z,4.23
2022-12-03T02:52:38.165Z,4.29
2022-12-03T02:55:06.787Z,4.30
2022-12-03T02:57:34.900Z,4.29
2022-12-03T03:00:04.589Z,4.28
2022-12-03T03:02:32.625Z,4.32
2022-12-03T03:05:00.577Z,4.40
2022-12-03T03:07:28.585Z,4.38
2022-12-03T03:09:56.554Z,4.38
2022-12-03T03:12:24.551Z,4.33
2022-12-03T03:14:52.777Z,4.32
2022-12-03T03:17:22.150Z,4.31
2022-12-03T03:19:50.052Z,4.32
2022-12-03T03:22:17.982Z,4.32
2022-12-03T03:24:45.892Z,4.33
2022-12-03T03:27:13.822Z,4.32
2022-12-03T03:29:41.748Z,4.25
2022-12-03T03:32:09.704Z,4.24
2022-12-03T03:34:39.130Z,4.24
2022-12-03T03:37:07.037Z,4.27
2022-12-03T03:39:35.381Z,4.30
2022-12-03T03:42:03.315Z,4.27
2022-12-03T03:44:32.779Z,4.28
2022-12-03T03:47:00.755Z,4.28
2022-12-03T03:49:28.735Z,4.27
2022-12-03T03:51:58.072Z,4.26
2022-12-03T03:54:26.039Z,4.29
2022-12-03T03:56:54.143Z,4.31
2022-12-03T03:59:22.083Z,4.29
2022-12-03T04:01:49.990Z,4.30
2022-12-03T04:04:19.710Z,4.32
2022-12-03T04:06:47.822Z,4.31
2022-12-03T04:09:17.128Z,4.35
2022-12-03T04:12:07.763Z,4.32
2022-12-03T04:14:35.754Z,4.31
2022-12-03T04:17:03.791Z,4.30
2022-12-03T04:19:30.773Z,4.28
2022-12-03T04:22:15.997Z,4.33
2022-12-03T04:24:45.318Z,4.33
2022-12-03T04:27:30.614Z,4.28
2022-12-03T04:29:58.512Z,4.24
2022-12-03T04:32:43.822Z,4.28
2022-12-03T04:35:29.429Z,4.29
2022-12-03T04:37:57.511Z,4.36
2022-12-03T04:40:44.159Z,4.35
2022-12-03T04:43:13.121Z,4.36
2022-12-03T04:45:41.079Z,4.34
2022-12-03T04:48:09.040Z,4.35
2022-12-03T04:50:37.018Z,4.38
2022-12-03T04:53:04.933Z,4.36
2022-12-03T04:55:34.276Z,4.36
2022-12-03T04:58:02.199Z,4.39
2022-12-03T05:00:30.191Z,4.38
2022-12-03T05:02:58.169Z,4.37
2022-12-03T05:05:26.153Z,4.39
2022-12-03T05:07:54.163Z,4.39
2022-12-03T05:10:22.164Z,4.40
2022-12-03T05:12:51.505Z,4.41
2022-12-03T05:15:19.540Z,4.39
2022-12-03T05:17:47.490Z,4.37
2022-12-03T05:20:33.169Z,4.30
2022-12-03T05:23:01.106Z,4.30
2022-12-03T05:25:29.089Z,4.32
2022-12-03T05:27:58.395Z,4.33
2022-12-03T05:30:26.462Z,4.34
2022-12-03T05:32:54.485Z,4.30
2022-12-03T05:35:22.422Z,4.33
2022-12-03T05:37:50.379Z,4.35
2022-12-03T05:40:18.663Z,4.36
2022-12-03T05:42:54.488Z,4.41
2022-12-03T05:45:24.269Z,4.44
2022-12-03T05:47:52.258Z,4.45
2022-12-03T05:50:20.229Z,4.54
2022-12-03T05:52:48.203Z,4.54
2022-12-03T05:55:16.141Z,4.46
2022-12-03T05:57:44.659Z,4.44
2022-12-03T06:00:14.964Z,4.45
2022-12-03T06:02:44.357Z,4.46
2022-12-03T06:05:13.220Z,4.47
2022-12-03T06:07:41.207Z,4.32
2022-12-03T06:10:16.187Z,4.37
2022-12-03T06:12:44.129Z,4.41
2022-12-03T06:15:14.361Z,4.44
2022-12-03T06:17:42.351Z,4.46
2022-12-03T06:20:13.609Z,4.51
2022-12-03T06:22:41.528Z,4.57
2022-12-03T06:25:10.041Z,4.64
2022-12-03T06:27:37.949Z,4.65
2022-12-03T06:30:07.987Z,4.74
2022-12-03T06:32:35.911Z,4.72
2022-12-03T06:35:03.875Z,4.74
2022-12-03T06:37:33.209Z,4.74
2022-12-03T06:40:01.141Z,4.74
2022-12-03T06:42:29.079Z,4.77
2022-12-03T06:44:57.248Z,4.85
2022-12-03T06:47:25.357Z,4.98
2022-12-03T06:49:53.344Z,5.09
2022-12-03T06:52:21.308Z,5.13
2022-12-03T06:54:50.824Z,5.19
2022-12-03T06:57:18.901Z,5.15
2022-12-03T06:59:46.849Z,5.08
2022-12-03T07:02:14.815Z,4.97
2022-12-03T07:04:46.214Z,4.87
2022-12-03T07:07:14.644Z,4.96
2022-12-03T07:09:42.617Z,5.03
2022-12-03T07:12:11.974Z,5.01
2022-12-03T07:14:39.924Z,5.07
2022-12-03T07:17:07.908Z,5.11
2022-12-03T07:19:35.887Z,5.17
2022-12-03T07:22:03.991Z,5.28
2022-12-03T07:24:31.975Z,5.45
2022-12-03T07:26:59.947Z,5.56
2022-12-03T07:29:29.293Z,5.64
2022-12-03T07:31:57.226Z,5.67
2022-12-03T07:34:25.173Z,5.62
2022-12-03T07:36:53.142Z,5.58
2022-12-03T07:39:21.103Z,5.65
2022-12-03T07:41:49.047Z,5.66
2022-12-03T07:44:16.974Z,5.62
2022-12-03T07:46:46.319Z,5.66
2022-12-03T07:49:14.284Z,5.89
2022-12-03T07:51:42.978Z,5.88
2022-12-03T07:54:10.928Z,5.73
2022-12-03T07:56:38.908Z,5.79
2022-12-03T07:59:06.868Z,5.82
2022-12-03T08:01:34.990Z,5.76
2022-12-03T08:04:04.401Z,5.95
2022-12-03T08:06:32.366Z,5.95
2022-12-03T08:09:00.306Z,5.97
2022-12-03T08:11:28.879Z,5.87
2022-12-03T08:13:56.867Z,6.01
2022-12-03T08:16:25.005Z,6.07
2022-12-03T08:18:52.961Z,6.10
2022-12-03T08:21:22.546Z,6.24
2022-12-03T08:23:50.480Z,6.21
2022-12-03T08:26:22.023Z,6.24
2022-12-03T08:28:49.992Z,6.26
2022-12-03T08:31:27.942Z,6.18
2022-12-03T08:34:02.412Z,6.38
2022-12-03T08:36:32.344Z,6.43
2022-12-03T08:39:00.871Z,6.56
2022-12-03T08:41:58.478Z,6.51
2022-12-03T08:44:27.749Z,6.75
2022-12-03T08:46:57.976Z,6.77
2022-12-03T08:49:25.952Z,6.67
2022-12-03T08:51:57.441Z,6.56
2022-12-03T08:54:25.422Z,6.72
2022-12-03T08:56:53.351Z,6.82
2022-12-03T08:59:30.829Z,6.79
2022-12-03T09:01:58.884Z,6.95
2022-12-03T09:04:29.658Z,6.99
2022-12-03T09:06:59.072Z,6.97
2022-12-03T09:09:27.023Z,7.03
2022-12-03T09:11:55.330Z,7.11
2022-12-03T09:14:23.826Z,7.24
2022-12-03T09:16:55.595Z,7.37
2022-12-03T09:19:24.168Z,7.38
2022-12-03T09:21:52.139Z,7.39
2022-12-03T09:24:21.480Z,7.37
2022-12-03T09:26:49.450Z,7.37
2022-12-03T09:29:17.380Z,7.28
2022-12-03T09:31:45.501Z,7.16
2022-12-03T09:34:13.532Z,6.87
2022-12-03T09:36:41.462Z,6.73
2022-12-03T09:39:09.661Z,6.75
2022-12-03T09:41:39.013Z,6.83
2022-12-03T09:44:08.742Z,6.98
2022-12-03T09:46:41.814Z,7.19
2022-12-03T09:49:15.750Z,7.29
2022-12-03T09:51:44.209Z,7.41
2022-12-03T09:54:12.220Z,7.52
2022-12-03T09:56:41.585Z,7.64
2022-12-03T09:59:13.940Z,7.63
2022-12-03T10:01:41.973Z,7.43
2022-12-03T10:04:10.055Z,7.44
2022-12-03T10:06:43.922Z,7.41
2022-12-03T10:09:14.415Z,7.29
2022-12-03T10:11:43.751Z,7.32
2022-12-03T10:14:12.001Z,7.20
2022-12-03T10:16:40.478Z,7.24
2022-12-03T10:19:10.801Z,7.26
2022-12-03T10:21:39.515Z,7.24
2022-12-03T10:24:21.840Z,7.06
2022-12-03T10:26:51.638Z,7.27
2022-12-03T10:29:20.307Z,7.22
2022-12-03T10:31:55.589Z,7.26
2022-12-03T10:34:27.576Z,7.16
2022-12-03T10:37:15.858Z,7.32
2022-12-03T10:39:57.982Z,7.26
2022-12-03T10:42:27.886Z,7.16
2022-12-03T10:45:10.311Z,7.21
2022-12-03T10:47:38.350Z,7.24
2022-12-03T10:50:07.563Z,7.35
2022-12-03T10:52:35.574Z,7.34
2022-12-03T10:55:03.604Z,7.21
2022-12-03T10:57:32.893Z,7.14
2022-12-03T11:00:00.840Z,6.95
2022-12-03T11:02:28.868Z,6.99
2022-12-03T11:04:56.934Z,7.05
2022-12-03T11:07:26.208Z,7.04
2022-12-03T11:09:55.403Z,7.07
2022-12-03T11:12:24.821Z,7.14
2022-12-03T11:15:15.658Z,7.25
2022-12-03T11:17:47.911Z,7.34
2022-12-03T11:20:52.673Z,7.35
2022-12-03T11:23:44.855Z,7.33
2022-12-03T11:26:18.373Z,7.31
2022-12-03T11:28:54.155Z,7.30
2022-12-03T11:31:40.793Z,7.26
2022-12-03T11:34:48.629Z,7.13
2022-12-03T11:37:25.896Z,7.12
2022-12-03T11:40:21.274Z,6.96
2022-12-03T11:42:49.410Z,7.01
2022-12-03T11:45:19.692Z,7.05
2022-12-03T11:48:01.250Z,7.09
2022-12-03T11:50:37.688Z,7.02
2022-12-03T11:53:13.116Z,6.88
2022-12-03T11:55:44.340Z,7.02
2022-12-03T11:58:16.641Z,7.05
2022-12-03T12:00:49.672Z,7.01
2022-12-03T12:03:26.927Z,7.03
2022-12-03T12:06:05.720Z,6.98
2022-12-03T12:08:33.712Z,6.91
2022-12-03T12:11:01.782Z,6.85
2022-12-03T12:13:51.702Z,6.93
2022-12-03T12:16:42.991Z,6.89
2022-12-03T12:19:31.922Z,6.77
2022-12-03T12:22:17.130Z,6.78
2022-12-03T12:24:47.157Z,6.80
2022-12-03T12:27:15.927Z,6.85
2022-12-03T12:29:45.829Z,6.88
2022-12-03T12:32:15.897Z,6.78
2022-12-03T12:34:46.676Z,6.70
2022-12-03T12:37:17.412Z,6.77
2022-12-03T12:39:45.390Z,6.84
2022-12-03T12:42:28.584Z,6.93
2022-12-03T12:44:56.675Z,6.97
2022-12-03T12:47:24.627Z,6.99
2022-12-03T12:49:54.305Z,6.98
2022-12-03T12:52:22.442Z,6.99
2022-12-03T12:54:50.369Z,6.97
2022-12-03T12:57:22.169Z,6.96
2022-12-03T12:59:50.286Z,6.98
2022-12-03T13:02:41.108Z,6.96
2022-12-03T13:05:12.860Z,6.88
2022-12-03T13:07:41.660Z,6.81
2022-12-03T13:10:36.597Z,6.83
2022-12-03T13:13:24.308Z,6.75
2022-12-03T13:15:54.722Z,6.75
2022-12-03T13:18:27.885Z,6.79
2022-12-03T13:20:57.259Z,6.76
2022-12-03T13:23:30.684Z,6.71
2022-12-03T13:26:08.413Z,6.62
2022-12-03T13:28:46.599Z,6.55
2022-12-03T13:31:22.498Z,6.53
2022-12-03T13:33:50.706Z,6.50
2022-12-03T13:36:20.725Z,6.49
2022-12-03T13:38:48.684Z,6.46
2022-12-03T13:41:31.220Z,6.45
2022-12-03T13:43:59.908Z,6.40
2022-12-03T13:46:28.012Z,6.34
2022-12-03T13:49:00.317Z,6.31
2022-12-03T13:51:31.691Z,6.30
2022-12-03T13:53:59.784Z,6.30
2022-12-03T13:56:28.753Z,6.21
2022-12-03T13:58:57.374Z,6.17
2022-12-03T14:01:25.414Z,6.09
2022-12-03T14:03:53.380Z,6.09
2022-12-03T14:06:21.328Z,6.06
2022-12-03T14:08:51.537Z,5.94
2022-12-03T14:11:33.313Z,5.93
2022-12-03T14:14:01.263Z,5.94
2022-12-03T14:16:29.326Z,5.88
2022-12-03T14:18:57.332Z,5.88
2022-12-03T14:21:25.261Z,5.89
2022-12-03T14:23:54.585Z,5.83
2022-12-03T14:26:22.555Z,5.85
2022-12-03T14:28:50.505Z,5.88
2022-12-03T14:31:18.516Z,5.84
2022-12-03T14:33:46.453Z,5.87
2022-12-03T14:36:14.406Z,5.88
2022-12-03T14:38:42.309Z,5.88
2022-12-03T14:41:25.472Z,5.86
2022-12-03T14:43:53.402Z,5.82
2022-12-03T14:46:21.400Z,5.80
2022-12-03T14:48:49.416Z,5.81
2022-12-03T14:51:17.334Z,5.82
2022-12-03T14:53:45.259Z,5.88
2022-12-03T14:56:14.564Z,5.90
2022-12-03T14:58:42.473Z,5.89
2022-12-03T15:01:10.495Z,5.87
2022-12-03T15:03:38.528Z,5.84
2022-12-03T15:06:06.807Z,5.85
2022-12-03T15:08:34.776Z,5.84
2022-12-03T15:11:02.757Z,5.81
2022-12-03T15:13:32.097Z,5.79
2022-12-03T15:16:00.156Z,5.76
2022-12-03T15:18:28.131Z,5.75
2022-12-03T15:20:56.374Z,5.70
2022-12-03T15:23:24.306Z,5.68
2022-12-03T15:25:52.283Z,5.55
2022-12-03T15:28:20.243Z,5.72
2022-12-03T15:30:49.575Z,5.72
2022-12-03T15:33:17.625Z,5.70
2022-12-03T15:35:45.546Z,5.67
2022-12-03T15:38:13.618Z,5.66
2022-12-03T15:40:41.604Z,5.63
2022-12-03T15:43:09.579Z,5.62
2022-12-03T15:45:37.528Z,5.67
2022-12-03T15:48:07.264Z,5.63
2022-12-03T15:50:39.890Z,5.60
2022-12-03T15:53:08.315Z,5.59
2022-12-03T15:55:36.236Z,5.63
2022-12-03T15:58:04.203Z,5.66
2022-12-03T16:00:32.123Z,5.64
2022-12-03T16:03:00.179Z,5.61
2022-12-03T16:05:29.505Z,5.59
2022-12-03T16:07:57.540Z,5.55
2022-12-03T16:10:25.599Z,5.64
2022-12-03T16:12:53.548Z,5.63
2022-12-03T16:15:26.704Z,5.64
2022-12-03T16:17:55.258Z,5.65
2022-12-03T16:20:23.223Z,5.67
2022-12-03T16:22:52.547Z,5.68
2022-12-03T16:25:20.518Z,5.67
2022-12-03T16:27:48.481Z,5.66
2022-12-03T16:30:16.724Z,5.68
2022-12-03T16:32:44.703Z,5.70
2022-12-03T16:35:12.640Z,5.69
2022-12-03T16:37:40.571Z,5.54
2022-12-03T16:40:11.033Z,5.71
2022-12-03T16:42:38.974Z,5.73
2022-12-03T16:45:25.447Z,5.71
2022-12-03T16:47:53.396Z,5.64
2022-12-03T16:50:29.179Z,5.57
2022-12-03T16:53:13.257Z,5.59
2022-12-03T16:55:42.805Z,5.59
2022-12-03T16:58:10.728Z,5.57
2022-12-03T17:00:38.660Z,5.53
2022-12-03T17:03:06.720Z,5.51
2022-12-03T17:05:34.747Z,5.57
2022-12-03T17:08:02.794Z,5.55
2022-12-03T17:10:30.876Z,5.57
2022-12-03T17:13:09.257Z,5.50
2022-12-03T17:15:37.963Z,5.49
2022-12-03T17:18:06.317Z,5.51
2022-12-03T17:20:34.579Z,5.45
2022-12-03T17:23:02.594Z,5.48
2022-12-03T17:25:30.956Z,5.53
2022-12-03T17:28:00.273Z,5.51
2022-12-03T17:30:28.222Z,5.51
2022-12-03T17:32:56.171Z,5.53
2022-12-03T17:35:24.135Z,5.47
2022-12-03T17:37:52.112Z,5.43
2022-12-03T17:40:20.193Z,5.42
2022-12-03T17:42:48.123Z,5.45
2022-12-03T17:45:17.643Z,5.43
2022-12-03T17:47:45.596Z,5.38
2022-12-03T17:50:13.791Z,5.44
2022-12-03T17:52:41.726Z,5.48
2022-12-03T17:55:13.938Z,5.50
2022-12-03T17:57:42.396Z,5.53
2022-12-03T18:00:11.412Z,5.54
2022-12-03T18:02:40.726Z,5.60
2022-12-03T18:05:09.264Z,5.55
2022-12-03T18:07:37.297Z,5.41
2022-12-03T18:10:06.017Z,5.46
2022-12-03T18:12:34.011Z,5.52
2022-12-03T18:15:02.036Z,5.54
2022-12-03T18:17:29.966Z,5.58
2022-12-03T18:19:59.339Z,5.61
2022-12-03T18:22:28.118Z,5.43
2022-12-03T18:24:56.085Z,5.46
2022-12-03T18:27:24.046Z,5.48
2022-12-03T18:29:52.296Z,5.52
2022-12-03T18:32:28.940Z,5.55
2022-12-03T18:34:59.136Z,5.58
2022-12-03T18:37:28.247Z,5.51
2022-12-03T18:39:56.670Z,5.44
2022-12-03T18:42:25.013Z,5.49
2022-12-03T18:44:54.068Z,5.50
2022-12-03T18:47:22.928Z,5.57
2022-12-03T18:49:51.030Z,5.62
2022-12-03T18:52:21.321Z,5.59
2022-12-03T18:54:49.541Z,5.62
2022-12-03T18:57:17.556Z,5.65
2022-12-03T18:59:45.469Z,5.69
2022-12-03T19:02:38.523Z,5.71
2022-12-03T19:05:04.024Z,5.64
2022-12-03T19:07:33.645Z,5.61
2022-12-03T19:10:01.640Z,5.59
2022-12-03T19:12:29.939Z,5.56
2022-12-03T19:14:57.880Z,5.59
2022-12-03T19:17:27.237Z,5.64
2022-12-03T19:19:55.709Z,5.64
2022-12-03T19:22:23.922Z,5.62
2022-12-03T19:24:53.280Z,5.61
2022-12-03T19:27:21.270Z,5.54
2022-12-03T19:29:49.377Z,5.57
2022-12-03T19:32:17.385Z,5.64
2022-12-03T19:34:45.335Z,5.65
2022-12-03T19:37:13.280Z,5.68
2022-12-03T19:39:41.235Z,5.63
2022-12-03T19:42:10.605Z,5.65
2022-12-03T19:44:39.168Z,5.68
2022-12-03T19:47:07.161Z,5.68
2022-12-03T19:49:35.313Z,5.54
2022-12-03T19:52:03.291Z,5.76
2022-12-03T19:54:31.248Z,5.74
2022-12-03T19:56:59.240Z,5.74
2022-12-03T19:59:28.553Z,5.71
2022-12-03T20:01:56.634Z,5.72
2022-12-03T20:04:24.727Z,5.75
2022-12-03T20:06:52.737Z,5.78
2022-12-03T20:09:22.563Z,5.77
2022-12-03T20:11:51.277Z,5.81
2022-12-03T20:14:19.375Z,5.79
2022-12-03T20:16:48.821Z,5.81
2022-12-03T20:19:17.617Z,5.83
2022-12-03T20:21:45.637Z,5.85
2022-12-03T20:24:14.613Z,5.86
2022-12-03T20:26:42.651Z,5.87
2022-12-03T20:29:10.592Z,5.85
2022-12-03T20:31:38.635Z,5.79
2022-12-03T20:34:08.259Z,5.80
2022-12-03T20:36:36.377Z,5.78
2022-12-03T20:39:05.571Z,5.71
2022-12-03T20:41:35.470Z,5.71
2022-12-03T20:44:03.539Z,5.74
2022-12-03T20:46:32.545Z,5.72
2022-12-03T20:49:00.636Z,5.74
2022-12-03T20:51:30.900Z,5.76
2022-12-03T20:53:59.007Z,5.77
2022-12-03T20:56:28.153Z,5.76
2022-12-03T20:58:56.075Z,5.76
2022-12-03T21:01:25.061Z,5.66
2022-12-03T21:03:53.158Z,5.67
2022-12-03T21:06:21.512Z,5.64
2022-12-03T21:08:50.995Z,5.67
2022-12-03T21:11:19.852Z,5.62
2022-12-03T21:13:48.110Z,5.58
2022-12-03T21:16:17.776Z,5.65
2022-12-03T21:18:45.935Z,5.71
2022-12-03T21:21:14.547Z,5.66
2022-12-03T21:23:42.568Z,5.68
2022-12-03T21:26:13.027Z,5.61
2022-12-03T21:28:41.626Z,5.60
2022-12-03T21:31:11.105Z,5.60
2022-12-03T21:33:39.508Z,5.61
2022-12-03T21:36:08.113Z,5.48
2022-12-03T21:38:36.250Z,5.55
2022-12-03T21:41:04.435Z,5.54
2022-12-03T21:43:34.057Z,5.51
2022-12-03T21:46:02.123Z,5.59
2022-12-03T21:48:30.233Z,5.63
2022-12-03T21:51:01.519Z,5.66
2022-12-03T21:53:29.486Z,5.64
2022-12-03T21:55:57.422Z,5.69
2022-12-03T21:58:25.519Z,5.69
2022-12-03T22:00:54.918Z,5.60
2022-12-03T22:03:22.903Z,5.59
2022-12-03T22:05:50.883Z,5.61
2022-12-03T22:08:19.220Z,5.67
2022-12-03T22:10:47.181Z,5.66
2022-12-03T22:13:15.101Z,5.68
2022-12-03T22:15:43.077Z,5.70
2022-12-03T22:18:12.467Z,5.69
2022-12-03T22:20:42.876Z,5.67
2022-12-03T22:23:10.814Z,5.64
2022-12-03T22:25:38.740Z,5.61
2022-12-03T22:28:06.659Z,5.57
2022-12-03T22:30:34.695Z,5.60
2022-12-03T22:33:02.650Z,5.61
2022-12-03T22:35:31.989Z,5.64
2022-12-03T22:37:59.913Z,5.68
2022-12-03T22:40:27.870Z,5.68
2022-12-03T22:42:55.791Z,5.70
2022-12-03T22:45:23.772Z,5.63
2022-12-03T22:47:51.713Z,5.65
2022-12-03T22:50:19.645Z,5.67
2022-12-03T22:52:48.974Z,5.57
2022-12-03T22:55:16.926Z,5.58
2022-12-03T22:57:44.896Z,5.59
2022-12-03T23:00:13.950Z,5.59
2022-12-03T23:02:41.973Z,5.53
2022-12-03T23:05:10.284Z,5.53
2022-12-03T23:07:38.271Z,5.50
2022-12-03T23:10:09.146Z,5.46
2022-12-03T23:12:37.698Z,5.48
2022-12-03T23:15:06.862Z,5.48
2022-12-03T23:17:34.780Z,5.55
2022-12-03T23:20:03.578Z,5.57
2022-12-03T23:22:31.545Z,5.54
2022-12-03T23:24:59.508Z,5.56
2022-12-03T23:27:28.814Z,5.35
2022-12-03T23:29:56.943Z,5.54
2022-12-03T23:32:25.092Z,5.54
2022-12-03T23:34:54.327Z,5.52
2022-12-03T23:37:22.912Z,5.51
2022-12-03T23:39:50.860Z,5.48
2022-12-03T23:42:18.789Z,5.48
2022-12-03T23:44:48.097Z,5.53
2022-12-03T23:47:16.079Z,5.47
2022-12-03T23:49:44.109Z,5.49
2022-12-03T23:52:12.097Z,5.54
2022-12-03T23:54:40.052Z,5.51
2022-12-03T23:57:08.038Z,5.54
2022-12-03T23:59:35.987Z,5.53
